createdAt,value
2018-05-25T00:02:12.687Z,93.16
2018-05-25T00:04:41.015Z,93.24
2018-05-25T00:07:09.380Z,93.37
2018-05-25T00:09:37.692Z,92.91
2018-05-25T00:12:06.789Z,93.71
2018-05-25T00:14:35.854Z,93.75
2018-05-25T00:17:04.154Z,93.70
2018-05-25T00:19:33.298Z,93.84
2018-05-25T00:22:01.805Z,94.02
2018-05-25T00:24:30.258Z,93.95
2018-05-25T00:26:58.594Z,94.28
2018-05-25T00:29:27.935Z,94.72
2018-05-25T00:31:56.231Z,94.62
2018-05-25T00:34:24.949Z,94.24
2018-05-25T00:36:53.262Z,93.73
2018-05-25T00:39:21.576Z,93.90
2018-05-25T00:41:49.915Z,94.01
2018-05-25T00:44:18.221Z,94.12
2018-05-25T00:46:46.541Z,94.16
2018-05-25T00:49:14.874Z,94.63
2018-05-25T00:51:43.197Z,94.89
2018-05-25T00:54:11.510Z,95.24
2018-05-25T00:56:39.828Z,95.68
2018-05-25T00:59:08.225Z,95.98
2018-05-25T01:01:36.521Z,95.96
2018-05-25T01:04:05.596Z,96.07
2018-05-25T01:06:33.890Z,96.44
2018-05-25T01:09:02.944Z,96.61
2018-05-25T01:11:31.253Z,96.44
2018-05-25T01:13:59.537Z,96.46
2018-05-25T01:16:28.910Z,96.20
2018-05-25T01:18:57.204Z,95.82
2018-05-25T01:21:25.504Z,95.74
2018-05-25T01:23:54.569Z,95.86
2018-05-25T01:26:22.873Z,95.28
2018-05-25T01:28:51.918Z,95.20
2018-05-25T01:31:20.895Z,95.23
2018-05-25T01:33:49.234Z,95.00
2018-05-25T01:36:18.287Z,94.90
2018-05-25T01:38:46.597Z,94.80
2018-05-25T01:41:14.912Z,94.36
2018-05-25T01:43:43.239Z,94.41
2018-05-25T01:46:11.556Z,94.79
2018-05-25T01:48:40.691Z,94.04
2018-05-25T01:51:09.718Z,94.03
2018-05-25T01:53:38.127Z,94.22
2018-05-25T01:56:07.266Z,93.72
2018-05-25T01:58:36.402Z,94.22
2018-05-25T02:01:05.538Z,93.67
2018-05-25T02:03:34.307Z,93.48
2018-05-25T02:06:02.735Z,93.63
2018-05-25T02:08:32.180Z,92.89
2018-05-25T02:11:01.264Z,93.16
2018-05-25T02:13:29.581Z,93.70
2018-05-25T02:15:58.095Z,93.96
2018-05-25T02:18:26.480Z,93.93
2018-05-25T02:20:55.569Z,94.16
2018-05-25T02:23:23.896Z,94.35
2018-05-25T02:25:52.989Z,94.43
2018-05-25T02:28:22.167Z,94.53
2018-05-25T02:30:50.518Z,94.32
2018-05-25T02:33:18.837Z,94.00
2018-05-25T02:35:47.934Z,94.25
2018-05-25T02:38:17.005Z,94.25
2018-05-25T02:40:45.316Z,94.53
2018-05-25T02:43:14.412Z,94.41
2018-05-25T02:45:43.473Z,94.80
2018-05-25T02:48:11.768Z,94.99
2018-05-25T02:50:40.202Z,94.99
2018-05-25T02:53:08.503Z,95.36
2018-05-25T02:55:37.264Z,95.61
2018-05-25T02:58:05.550Z,95.69
2018-05-25T03:00:33.885Z,95.74
2018-05-25T03:03:02.955Z,95.77
2018-05-25T03:05:31.273Z,95.83
2018-05-25T03:08:00.337Z,95.81
2018-05-25T03:10:29.432Z,95.81
2018-05-25T03:12:57.720Z,95.74
2018-05-25T03:15:26.800Z,95.72
2018-05-25T03:17:55.089Z,95.67
2018-05-25T03:20:24.196Z,95.66
2018-05-25T03:22:53.340Z,95.74
2018-05-25T03:25:21.653Z,95.49
2018-05-25T03:27:49.974Z,95.17
2018-05-25T03:30:18.290Z,95.16
2018-05-25T03:32:46.606Z,95.47
2018-05-25T03:35:15.654Z,95.62
2018-05-25T03:37:44.776Z,94.99
2018-05-25T03:40:13.098Z,94.87
2018-05-25T03:42:41.830Z,95.13
2018-05-25T03:45:10.148Z,95.12
2018-05-25T03:47:39.358Z,95.23
2018-05-25T03:50:07.810Z,95.21
2018-05-25T03:52:36.937Z,95.37
2018-05-25T03:55:05.284Z,95.60
2018-05-25T03:57:34.500Z,95.84
2018-05-25T04:00:21.331Z,95.87
2018-05-25T04:02:49.661Z,96.06
2018-05-25T04:05:18.017Z,95.72
2018-05-25T04:07:46.428Z,95.47
2018-05-25T04:10:14.853Z,95.55
2018-05-25T04:12:44.448Z,94.89
2018-05-25T04:15:12.747Z,94.82
2018-05-25T04:17:41.043Z,94.61
2018-05-25T04:20:09.356Z,94.60
2018-05-25T04:22:38.410Z,94.22
2018-05-25T04:25:06.751Z,94.37
2018-05-25T04:27:35.045Z,94.49
2018-05-25T04:30:03.394Z,93.63
2018-05-25T04:32:32.456Z,93.49
2018-05-25T04:35:00.785Z,93.88
2018-05-25T04:37:29.103Z,93.38
2018-05-25T04:39:57.410Z,93.65
2018-05-25T04:42:26.476Z,93.74
2018-05-25T04:44:54.772Z,93.73
2018-05-25T04:47:23.200Z,93.21
2018-05-25T04:49:51.481Z,93.39
2018-05-25T04:52:19.811Z,92.91
2018-05-25T04:54:48.076Z,93.32
2018-05-25T04:57:16.376Z,92.84
2018-05-25T04:59:45.731Z,93.24
2018-05-25T05:02:14.052Z,92.77
2018-05-25T05:04:43.071Z,92.84
2018-05-25T05:07:11.394Z,92.24
2018-05-25T05:09:39.716Z,91.64
2018-05-25T05:12:08.862Z,90.90
2018-05-25T05:14:37.288Z,89.82
2018-05-25T05:17:05.612Z,89.27
2018-05-25T05:19:33.990Z,89.80
2018-05-25T05:22:02.276Z,89.72
2018-05-25T05:24:30.561Z,89.24
2018-05-25T05:26:59.630Z,88.59
2018-05-25T05:29:27.921Z,88.78
2018-05-25T05:31:56.248Z,87.43
2018-05-25T05:34:25.303Z,88.12
2018-05-25T05:36:53.608Z,87.20
2018-05-25T05:39:21.943Z,87.69
2018-05-25T05:41:50.535Z,85.78
2018-05-25T05:44:18.883Z,87.80
2018-05-25T05:46:47.192Z,85.22
2018-05-25T05:49:15.500Z,82.12
2018-05-25T05:51:43.832Z,82.67
2018-05-25T05:54:12.146Z,82.91
2018-05-25T05:56:40.601Z,85.75
2018-05-25T05:59:08.897Z,84.29
2018-05-25T06:01:37.220Z,85.46
2018-05-25T06:04:06.450Z,85.59
2018-05-25T06:06:34.745Z,85.51
2018-05-25T06:09:03.091Z,84.69
2018-05-25T06:11:31.389Z,84.79
2018-05-25T06:13:59.784Z,84.60
2018-05-25T06:16:28.077Z,83.62
2018-05-25T06:18:56.394Z,83.04
2018-05-25T06:21:24.669Z,83.77
2018-05-25T06:23:53.121Z,84.01
2018-05-25T06:26:21.421Z,84.09
2018-05-25T06:28:50.505Z,83.94
2018-05-25T06:31:19.605Z,83.82
2018-05-25T06:33:48.692Z,83.81
2018-05-25T06:36:16.991Z,83.60
2018-05-25T06:38:46.125Z,82.35
2018-05-25T06:41:14.443Z,83.19
2018-05-25T06:43:42.745Z,83.10
2018-05-25T06:46:12.275Z,82.22
2018-05-25T06:48:40.670Z,79.10
2018-05-25T06:51:08.997Z,76.83
2018-05-25T06:53:38.132Z,76.71
2018-05-25T06:56:06.499Z,72.71
2018-05-25T06:58:34.782Z,67.44
2018-05-25T07:01:03.132Z,64.84
2018-05-25T07:03:32.166Z,66.29
2018-05-25T07:06:00.467Z,60.39
2018-05-25T07:08:28.820Z,65.59
2018-05-25T07:10:57.413Z,69.50
2018-05-25T07:13:25.732Z,69.40
2018-05-25T07:15:54.793Z,71.81
2018-05-25T07:18:23.117Z,69.83
2018-05-25T07:20:52.253Z,63.28
2018-05-25T07:23:20.532Z,60.69
2018-05-25T07:25:48.841Z,55.32
2018-05-25T07:28:17.154Z,55.23
2018-05-25T07:30:46.330Z,55.43
2018-05-25T07:33:14.647Z,60.88
2018-05-25T07:35:42.941Z,60.79
2018-05-25T07:38:11.273Z,60.64
2018-05-25T07:40:40.322Z,61.50
2018-05-25T07:43:08.640Z,65.53
2018-05-25T07:45:38.456Z,64.75
2018-05-25T07:48:07.553Z,67.18
2018-05-25T07:50:36.753Z,68.48
2018-05-25T07:53:05.804Z,66.51
2018-05-25T07:55:34.160Z,66.06
2018-05-25T07:58:02.520Z,66.76
2018-05-25T08:00:31.637Z,66.61
2018-05-25T08:03:00.239Z,65.51
2018-05-25T08:05:28.537Z,66.38
2018-05-25T08:07:56.799Z,64.38
2018-05-25T08:10:25.150Z,64.62
2018-05-25T08:12:53.434Z,65.51
2018-05-25T08:15:21.773Z,66.72
2018-05-25T08:17:50.844Z,66.50
2018-05-25T08:20:19.160Z,65.21
2018-05-25T08:22:48.254Z,64.47
2018-05-25T08:25:17.335Z,64.37
2018-05-25T08:27:46.382Z,66.02
2018-05-25T08:30:14.756Z,65.08
2018-05-25T08:32:43.085Z,66.62
2018-05-25T08:35:12.205Z,65.08
2018-05-25T08:37:41.365Z,64.53
2018-05-25T08:40:09.650Z,61.17
2018-05-25T08:42:37.985Z,61.67
2018-05-25T08:45:06.628Z,59.86
2018-05-25T08:47:35.757Z,60.26
2018-05-25T08:50:04.082Z,61.06
2018-05-25T08:52:32.375Z,61.01
2018-05-25T08:55:01.468Z,60.84
2018-05-25T08:57:29.781Z,61.81
2018-05-25T08:59:58.065Z,62.24
2018-05-25T09:02:26.542Z,62.04
2018-05-25T09:04:54.830Z,62.90
2018-05-25T09:07:23.122Z,62.74
2018-05-25T09:09:51.437Z,60.62
2018-05-25T09:12:20.532Z,62.26
2018-05-25T09:14:49.615Z,61.28
2018-05-25T09:17:17.933Z,61.76
2018-05-25T09:19:46.252Z,59.65
2018-05-25T09:22:14.641Z,59.38
2018-05-25T09:24:42.921Z,59.44
2018-05-25T09:27:11.225Z,60.79
2018-05-25T09:29:40.365Z,60.85
2018-05-25T09:32:08.992Z,59.92
2018-05-25T09:34:38.077Z,62.45
2018-05-25T09:37:06.361Z,61.33
2018-05-25T09:39:34.674Z,60.78
2018-05-25T09:42:03.054Z,59.52
2018-05-25T09:44:31.302Z,58.63
2018-05-25T09:46:59.623Z,57.76
2018-05-25T09:49:28.138Z,57.71
2018-05-25T09:51:56.482Z,58.57
2018-05-25T09:54:24.998Z,59.35
2018-05-25T09:57:01.097Z,57.50
2018-05-25T09:59:30.200Z,58.64
2018-05-25T10:01:59.258Z,59.15
2018-05-25T10:04:27.630Z,58.57
2018-05-25T10:06:55.915Z,57.40
2018-05-25T10:09:24.229Z,55.55
2018-05-25T10:11:53.265Z,56.71
2018-05-25T10:14:21.564Z,56.64
2018-05-25T10:16:49.878Z,56.25
2018-05-25T10:19:18.165Z,57.12
2018-05-25T10:21:46.526Z,56.61
2018-05-25T10:24:15.646Z,55.96
2018-05-25T10:26:43.940Z,56.65
2018-05-25T10:29:12.461Z,55.28
2018-05-25T10:31:40.792Z,56.24
2018-05-25T10:34:09.197Z,54.67
2018-05-25T10:36:37.546Z,55.38
2018-05-25T10:39:06.765Z,53.17
2018-05-25T10:41:35.132Z,54.69
2018-05-25T10:44:03.563Z,56.23
2018-05-25T10:46:32.014Z,54.43
2018-05-25T10:49:00.288Z,54.97
2018-05-25T10:51:28.585Z,53.18
2018-05-25T10:53:56.912Z,53.37
2018-05-25T10:56:25.212Z,54.12
2018-05-25T10:58:53.543Z,52.09
2018-05-25T11:01:22.718Z,52.15
2018-05-25T11:03:51.048Z,54.52
2018-05-25T11:06:19.341Z,54.26
2018-05-25T11:08:47.647Z,54.19
2018-05-25T11:11:16.071Z,54.47
2018-05-25T11:13:44.381Z,53.25
2018-05-25T11:16:12.665Z,51.95
2018-05-25T11:18:41.017Z,51.59
2018-05-25T11:21:09.290Z,52.26
2018-05-25T11:23:37.674Z,52.28
2018-05-25T11:26:06.021Z,54.08
2018-05-25T11:28:35.117Z,53.52
2018-05-25T11:31:04.195Z,53.30
2018-05-25T11:33:32.476Z,51.95
2018-05-25T11:36:00.818Z,52.90
2018-05-25T11:38:29.138Z,52.15
2018-05-25T11:40:57.434Z,50.62
2018-05-25T11:43:26.524Z,49.58
2018-05-25T11:45:55.563Z,50.17
2018-05-25T11:48:23.857Z,51.60
2018-05-25T11:50:52.156Z,51.33
2018-05-25T11:53:20.918Z,51.41
2018-05-25T11:55:49.203Z,52.48
2018-05-25T11:58:17.530Z,52.63
2018-05-25T12:00:45.836Z,55.70
2018-05-25T12:03:14.164Z,57.92
2018-05-25T12:05:43.234Z,60.49
2018-05-25T12:08:11.509Z,62.95
2018-05-25T12:10:39.839Z,63.97
2018-05-25T12:13:08.978Z,64.17
2018-05-25T12:15:37.285Z,63.07
2018-05-25T12:18:05.644Z,62.87
2018-05-25T12:20:34.065Z,64.54
2018-05-25T12:23:03.127Z,68.41
2018-05-25T12:25:32.962Z,70.38
2018-05-25T12:28:02.082Z,70.93
2018-05-25T12:30:30.414Z,72.15
2018-05-25T12:32:58.724Z,70.29
2018-05-25T12:35:27.015Z,69.49
2018-05-25T12:37:55.334Z,69.16
2018-05-25T12:40:23.954Z,69.21
2018-05-25T12:42:53.045Z,66.93
2018-05-25T12:45:21.344Z,65.92
2018-05-25T12:47:49.680Z,64.29
2018-05-25T12:50:18.023Z,64.83
2018-05-25T12:52:46.440Z,64.46
2018-05-25T12:55:14.739Z,62.70
2018-05-25T12:57:43.050Z,61.59
2018-05-25T13:00:11.486Z,60.43
2018-05-25T13:02:39.811Z,58.94
2018-05-25T13:05:08.097Z,58.52
2018-05-25T13:07:36.443Z,57.38
2018-05-25T13:10:05.490Z,57.32
2018-05-25T13:12:33.789Z,60.47
2018-05-25T13:15:02.139Z,57.76
2018-05-25T13:17:30.436Z,57.11
2018-05-25T13:19:59.575Z,55.02
2018-05-25T13:22:28.677Z,53.96
2018-05-25T13:24:57.029Z,52.30
2018-05-25T13:27:25.390Z,52.14
2018-05-25T13:29:54.563Z,51.99
2018-05-25T13:32:22.887Z,52.16
2018-05-25T13:34:51.955Z,49.75
2018-05-25T13:37:20.262Z,49.23
2018-05-25T13:39:49.312Z,49.30
2018-05-25T13:42:17.613Z,49.01
2018-05-25T13:44:45.933Z,48.88
2018-05-25T13:47:14.230Z,48.15
2018-05-25T13:49:42.721Z,48.08
2018-05-25T13:52:11.011Z,48.78
2018-05-25T13:54:39.339Z,48.85
2018-05-25T13:57:07.634Z,47.73
2018-05-25T13:59:36.096Z,48.96
2018-05-25T14:02:05.135Z,48.62
2018-05-25T14:04:33.526Z,48.95
2018-05-25T14:07:01.962Z,48.63
2018-05-25T14:09:31.440Z,47.76
2018-05-25T14:11:59.849Z,47.88
2018-05-25T14:14:28.244Z,48.38
2018-05-25T14:16:56.568Z,47.74
2018-05-25T14:19:24.879Z,48.96
2018-05-25T14:21:53.903Z,48.22
2018-05-25T14:24:22.180Z,46.37
2018-05-25T14:26:50.506Z,45.92
2018-05-25T14:29:19.601Z,46.46
2018-05-25T14:31:48.653Z,45.54
2018-05-25T14:34:17.029Z,46.38
2018-05-25T14:36:45.325Z,45.56
2018-05-25T14:39:13.691Z,46.09
2018-05-25T14:41:42.017Z,46.81
2018-05-25T14:44:11.105Z,46.61
2018-05-25T14:46:40.205Z,46.38
2018-05-25T14:49:08.551Z,47.10
2018-05-25T14:51:36.864Z,47.38
2018-05-25T14:54:05.897Z,47.24
2018-05-25T14:56:34.425Z,48.01
2018-05-25T14:59:03.531Z,47.96
2018-05-25T15:01:31.855Z,47.52
2018-05-25T15:04:00.155Z,48.23
2018-05-25T15:06:28.438Z,49.02
2018-05-25T15:08:56.723Z,48.64
2018-05-25T15:11:25.039Z,49.12
2018-05-25T15:13:53.358Z,49.40
2018-05-25T15:16:21.661Z,49.88
2018-05-25T15:18:49.991Z,49.72
2018-05-25T15:21:18.409Z,49.44
2018-05-25T15:23:47.453Z,50.22
2018-05-25T15:26:15.757Z,50.59
2018-05-25T15:28:44.073Z,50.00
2018-05-25T15:31:12.422Z,49.61
2018-05-25T15:33:40.746Z,49.96
2018-05-25T15:36:09.793Z,49.89
2018-05-25T15:38:38.376Z,50.05
2018-05-25T15:41:06.938Z,50.28
2018-05-25T15:43:35.257Z,50.47
2018-05-25T15:46:03.584Z,50.42
2018-05-25T15:48:31.902Z,50.13
2018-05-25T15:51:00.263Z,49.01
2018-05-25T15:53:28.624Z,48.25
2018-05-25T15:55:56.925Z,48.35
2018-05-25T15:58:25.204Z,48.30
2018-05-25T16:00:53.475Z,48.21
2018-05-25T16:03:21.849Z,47.40
2018-05-25T16:05:50.133Z,48.04
2018-05-25T16:08:18.457Z,47.70
2018-05-25T16:10:46.772Z,47.98
2018-05-25T16:13:15.074Z,47.16
2018-05-25T16:15:43.401Z,47.40
2018-05-25T16:18:12.488Z,47.95
2018-05-25T16:20:40.998Z,48.46
2018-05-25T16:23:09.289Z,48.74
2018-05-25T16:25:37.607Z,48.88
2018-05-25T16:28:05.932Z,49.29
2018-05-25T16:30:34.229Z,49.40
2018-05-25T16:33:02.534Z,49.28
2018-05-25T16:35:30.931Z,49.09
2018-05-25T16:37:59.212Z,49.24
2018-05-25T16:40:27.547Z,49.30
2018-05-25T16:42:55.865Z,49.40
2018-05-25T16:45:24.175Z,49.76
2018-05-25T16:47:53.240Z,49.97
2018-05-25T16:50:21.565Z,50.92
2018-05-25T16:52:49.970Z,50.94
2018-05-25T16:55:18.256Z,50.77
2018-05-25T16:57:46.581Z,51.09
2018-05-25T17:00:14.930Z,51.17
2018-05-25T17:02:43.355Z,51.50
2018-05-25T17:05:11.756Z,51.37
2018-05-25T17:07:40.046Z,51.80
2018-05-25T17:10:08.396Z,51.68
2018-05-25T17:12:36.710Z,51.75
2018-05-25T17:15:05.005Z,52.04
2018-05-25T17:17:34.056Z,52.12
2018-05-25T17:20:02.360Z,52.11
2018-05-25T17:22:30.696Z,51.94
2018-05-25T17:27:33.842Z,52.30
2018-05-25T17:30:02.160Z,51.95
2018-05-25T17:32:31.220Z,51.57
2018-05-25T17:34:59.527Z,51.29
2018-05-25T17:37:28.586Z,51.32
2018-05-25T17:39:56.965Z,50.27
2018-05-25T17:42:25.284Z,50.13
2018-05-25T17:44:54.341Z,49.93
2018-05-25T17:47:22.668Z,49.91
2018-05-25T17:49:51.048Z,49.54
2018-05-25T17:52:19.381Z,49.80
2018-05-25T17:54:47.861Z,49.46
2018-05-25T17:57:16.177Z,49.54
2018-05-25T17:59:45.258Z,49.73
2018-05-25T18:02:13.545Z,49.64
2018-05-25T18:04:42.632Z,49.56
2018-05-25T18:07:10.965Z,49.55
2018-05-25T18:09:39.263Z,49.68
2018-05-25T18:12:07.603Z,49.83
2018-05-25T18:14:35.886Z,49.88
2018-05-25T18:17:04.230Z,49.77
2018-05-25T18:19:33.285Z,50.02
2018-05-25T18:22:02.347Z,50.43
2018-05-25T18:24:30.661Z,50.54
2018-05-25T18:26:58.972Z,50.82
2018-05-25T18:29:28.009Z,51.16
2018-05-25T18:31:56.272Z,51.46
2018-05-25T18:34:24.630Z,51.81
2018-05-25T18:36:53.741Z,51.97
2018-05-25T18:39:22.015Z,52.42
2018-05-25T18:41:50.348Z,52.62
2018-05-25T18:44:19.624Z,52.74
2018-05-25T18:46:47.897Z,52.95
2018-05-25T18:49:16.228Z,53.18
2018-05-25T18:51:46.044Z,53.59
2018-05-25T18:54:32.045Z,53.93
2018-05-25T18:57:00.318Z,54.71
2018-05-25T18:59:29.395Z,54.44
2018-05-25T19:01:57.718Z,54.82
2018-05-25T19:04:26.041Z,54.71
2018-05-25T19:06:54.667Z,54.97
2018-05-25T19:09:23.017Z,57.13
2018-05-25T19:11:51.313Z,56.08
2018-05-25T19:14:19.617Z,56.20
2018-05-25T19:16:47.903Z,56.95
2018-05-25T19:21:50.012Z,57.53
2018-05-25T19:24:18.312Z,58.37
2018-05-25T19:26:47.433Z,58.64
2018-05-25T19:29:15.702Z,59.10
2018-05-25T19:31:44.742Z,59.12
2018-05-25T19:34:13.833Z,59.27
2018-05-25T19:36:42.173Z,60.53
2018-05-25T19:39:10.480Z,60.75
2018-05-25T19:41:38.804Z,60.24
2018-05-25T19:44:07.158Z,60.43
2018-05-25T19:46:35.456Z,60.59
2018-05-25T19:49:03.775Z,61.13
2018-05-25T19:51:32.107Z,60.94
2018-05-25T19:54:00.439Z,61.49
2018-05-25T19:56:28.775Z,61.96
2018-05-25T19:58:57.184Z,62.46
2018-05-25T20:01:25.481Z,62.59
2018-05-25T20:03:53.811Z,62.60
2018-05-25T20:06:22.161Z,62.55
2018-05-25T20:08:50.482Z,62.44
2018-05-25T20:11:19.614Z,62.30
2018-05-25T20:13:47.900Z,61.99
2018-05-25T20:16:16.287Z,62.03
2018-05-25T20:18:44.559Z,62.48
2018-05-25T20:21:12.926Z,62.09
2018-05-25T20:23:41.325Z,62.81
2018-05-25T20:26:09.636Z,63.15
2018-05-25T20:28:37.937Z,63.60
2018-05-25T20:31:06.388Z,63.75
2018-05-25T20:33:34.735Z,64.01
2018-05-25T20:36:03.067Z,64.63
2018-05-25T20:38:32.146Z,64.81
2018-05-25T20:41:00.898Z,64.83
2018-05-25T20:43:29.228Z,65.08
2018-05-25T20:45:57.667Z,64.97
2018-05-25T20:48:25.985Z,65.83
2018-05-25T20:50:55.067Z,65.61
2018-05-25T20:53:23.417Z,65.34
2018-05-25T20:55:51.709Z,65.59
2018-05-25T20:58:20.940Z,66.44
2018-05-25T21:00:49.254Z,66.16
2018-05-25T21:03:17.575Z,66.01
2018-05-25T21:05:45.893Z,66.23
2018-05-25T21:08:14.191Z,66.37
2018-05-25T21:10:42.522Z,66.26
2018-05-25T21:13:11.601Z,66.24
2018-05-25T21:15:39.930Z,66.87
2018-05-25T21:18:08.274Z,66.27
2018-05-25T21:20:37.341Z,66.60
2018-05-25T21:23:05.943Z,66.64
2018-05-25T21:25:34.996Z,66.72
2018-05-25T21:28:03.583Z,66.75
2018-05-25T21:30:31.906Z,66.80
2018-05-25T21:33:00.959Z,67.22
2018-05-25T21:35:29.253Z,67.12
2018-05-25T21:37:57.578Z,67.47
2018-05-25T21:40:25.885Z,67.53
2018-05-25T21:42:54.219Z,67.68
2018-05-25T21:45:23.273Z,67.15
2018-05-25T21:50:26.486Z,66.68
2018-05-25T21:52:54.821Z,65.74
2018-05-25T21:55:23.128Z,65.63
2018-05-25T21:57:51.450Z,65.88
2018-05-25T22:00:20.510Z,66.04
2018-05-25T22:02:48.912Z,66.23
2018-05-25T22:05:17.242Z,66.49
2018-05-25T22:07:45.570Z,66.44
2018-05-25T22:10:13.904Z,66.58
2018-05-25T22:12:42.249Z,66.53
2018-05-25T22:17:45.840Z,66.94
2018-05-25T22:20:15.104Z,66.81
2018-05-25T22:22:43.579Z,67.04
2018-05-25T22:25:12.081Z,67.85
2018-05-25T22:27:40.370Z,68.28
2018-05-25T22:30:08.846Z,68.42
2018-05-25T22:32:37.195Z,68.58
2018-05-25T22:35:05.489Z,68.55
2018-05-25T22:37:33.846Z,68.36
2018-05-25T22:40:02.194Z,68.28
2018-05-25T22:42:48.915Z,68.14
2018-05-25T22:45:35.054Z,68.14
2018-05-25T22:48:22.050Z,68.33
2018-05-25T22:51:08.073Z,68.09
2018-05-25T22:53:41.190Z,68.21
2018-05-25T22:56:09.492Z,68.60
2018-05-25T22:58:37.849Z,68.70
2018-05-25T23:01:09.045Z,69.30
2018-05-25T23:03:37.326Z,69.10
2018-05-25T23:06:05.630Z,69.17
2018-05-25T23:08:33.937Z,69.12
2018-05-25T23:11:03.046Z,69.35
2018-05-25T23:13:32.144Z,69.81
2018-05-25T23:16:00.438Z,69.94
2018-05-25T23:18:28.768Z,69.70
2018-05-25T23:20:57.072Z,69.85
2018-05-25T23:23:26.206Z,69.96
2018-05-25T23:25:54.519Z,69.85
2018-05-25T23:28:22.840Z,70.17
2018-05-25T23:30:51.148Z,70.08
2018-05-25T23:33:19.496Z,70.04
2018-05-25T23:35:47.828Z,70.06
2018-05-25T23:38:16.655Z,70.24
2018-05-25T23:40:44.957Z,70.22
2018-05-25T23:43:13.285Z,70.58
2018-05-25T23:45:42.376Z,71.06
2018-05-25T23:48:10.678Z,71.44
2018-05-25T23:50:38.964Z,71.39
2018-05-25T23:53:07.260Z,71.41
2018-05-25T23:55:35.586Z,71.68
2018-05-25T23:58:03.920Z,71.42
